createdAt,value
2018-12-03T00:02:24.890Z,2.60
2018-12-03T00:04:54.762Z,2.83
2018-12-03T00:07:24.649Z,3.00
2018-12-03T00:12:52.820Z,3.07
2018-12-03T00:15:21.721Z,2.93
2018-12-03T00:17:50.651Z,2.20
2018-12-03T00:20:19.579Z,2.47
2018-12-03T00:22:48.497Z,2.10
2018-12-03T00:25:17.423Z,2.43
2018-12-03T00:27:50.134Z,2.30
2018-12-03T00:30:19.053Z,2.43
2018-12-03T00:32:47.984Z,2.13
2018-12-03T00:35:16.927Z,1.50
2018-12-03T00:37:45.858Z,1.43
2018-12-03T00:40:14.777Z,1.20
2018-12-03T00:42:43.713Z,1.50
2018-12-03T00:45:12.714Z,1.13
2018-12-03T00:47:41.647Z,1.47
2018-12-03T00:50:10.909Z,1.00
2018-12-03T00:52:39.854Z,0.90
2018-12-03T00:55:08.777Z,0.90
2018-12-03T00:57:37.709Z,0.70
2018-12-03T01:00:07.016Z,0.40
2018-12-03T01:02:35.942Z,0.43
2018-12-03T01:05:05.992Z,0.63
2018-12-03T01:07:34.927Z,0.60
2018-12-03T01:10:04.779Z,0.70
2018-12-03T01:12:33.718Z,0.90
2018-12-03T01:15:02.639Z,0.60
2018-12-03T01:17:31.581Z,0.40
2018-12-03T01:20:00.494Z,0.50
2018-12-03T01:22:29.433Z,0.40
2018-12-03T01:24:58.422Z,0.40
2018-12-03T01:27:27.534Z,0.60
2018-12-03T01:29:56.454Z,0.50
2018-12-03T01:32:25.376Z,0.60
2018-12-03T01:34:54.311Z,0.43
2018-12-03T01:37:23.247Z,0.57
2018-12-03T01:39:52.193Z,0.50
2018-12-03T01:42:21.126Z,0.40
2018-12-03T01:44:50.041Z,0.40
2018-12-03T01:47:18.989Z,0.40
2018-12-03T01:49:47.910Z,0.30
2018-12-03T01:52:16.828Z,0.43
2018-12-03T01:54:45.766Z,0.47
2018-12-03T01:57:14.707Z,0.47
2018-12-03T01:59:43.630Z,0.43
2018-12-03T02:02:12.565Z,0.40
2018-12-03T02:04:41.511Z,0.30
2018-12-03T02:07:10.448Z,0.70
2018-12-03T02:09:39.392Z,0.40
2018-12-03T02:12:08.298Z,0.60
2018-12-03T02:14:37.231Z,0.30
2018-12-03T02:17:06.143Z,0.50
2018-12-03T02:19:35.076Z,0.50
2018-12-03T02:22:03.985Z,0.57
2018-12-03T02:24:32.927Z,0.43
2018-12-03T02:27:01.846Z,0.40
2018-12-03T02:29:30.775Z,0.40
2018-12-03T02:31:59.701Z,0.50
2018-12-03T02:34:28.623Z,0.40
2018-12-03T02:36:57.563Z,0.33
2018-12-03T02:39:26.493Z,0.53
2018-12-03T02:41:55.411Z,0.53
2018-12-03T02:44:24.374Z,0.30
2018-12-03T02:46:53.290Z,0.50
2018-12-03T02:49:22.224Z,0.40
2018-12-03T02:51:51.143Z,0.30
2018-12-03T02:54:20.069Z,0.60
2018-12-03T02:56:48.997Z,0.50
2018-12-03T02:59:17.946Z,0.37
2018-12-03T03:01:46.864Z,0.63
2018-12-03T03:04:15.802Z,0.77
2018-12-03T03:06:44.717Z,0.53
2018-12-03T03:09:13.658Z,0.83
2018-12-03T03:11:42.594Z,0.70
2018-12-03T03:14:11.533Z,0.70
2018-12-03T03:16:40.457Z,0.60
2018-12-03T03:19:09.392Z,0.90
2018-12-03T03:21:38.327Z,0.50
2018-12-03T03:24:07.253Z,1.00
2018-12-03T03:26:36.178Z,0.90
2018-12-03T03:29:05.586Z,1.10
2018-12-03T03:31:34.512Z,0.73
2018-12-03T03:34:03.448Z,0.70
2018-12-03T03:36:32.370Z,0.43
2018-12-03T03:39:01.312Z,0.70
2018-12-03T03:41:30.235Z,0.50
2018-12-03T03:43:59.184Z,0.80
2018-12-03T03:46:28.100Z,0.40
2018-12-03T03:48:57.046Z,0.60
2018-12-03T03:51:25.963Z,0.80
2018-12-03T03:53:54.889Z,0.63
2018-12-03T03:56:23.814Z,0.70
2018-12-03T03:58:52.746Z,0.50
2018-12-03T04:01:21.685Z,0.70
2018-12-03T04:03:50.629Z,0.40
2018-12-03T04:06:19.590Z,0.53
2018-12-03T04:08:48.517Z,0.53
2018-12-03T04:11:17.465Z,0.50
2018-12-03T04:13:46.425Z,0.80
2018-12-03T04:16:15.331Z,0.73
2018-12-03T04:18:44.515Z,0.80
2018-12-03T04:21:13.426Z,1.20
2018-12-03T04:23:42.373Z,1.17
2018-12-03T04:26:11.299Z,1.27
2018-12-03T04:28:40.237Z,0.90
2018-12-03T04:31:09.187Z,1.00
2018-12-03T04:33:38.122Z,1.60
2018-12-03T04:36:07.064Z,1.53
2018-12-03T04:38:35.991Z,1.70
2018-12-03T04:41:05.501Z,1.70
2018-12-03T04:43:34.421Z,1.90
2018-12-03T04:46:03.351Z,1.60
2018-12-03T04:48:32.314Z,1.67
2018-12-03T04:51:01.239Z,1.80
2018-12-03T04:53:30.184Z,2.17
2018-12-03T04:55:59.117Z,2.10
2018-12-03T04:58:28.033Z,1.70
2018-12-03T05:00:56.976Z,2.80
2018-12-03T05:03:25.909Z,3.47
2018-12-03T05:05:54.851Z,2.73
2018-12-03T05:08:23.781Z,2.23
2018-12-03T05:10:52.697Z,2.83
2018-12-03T05:13:21.620Z,3.13
2018-12-03T05:15:54.028Z,3.40
2018-12-03T05:18:22.938Z,3.17
2018-12-03T05:20:51.872Z,3.70
2018-12-03T05:23:20.813Z,4.13
2018-12-03T05:25:49.723Z,4.40
2018-12-03T05:28:18.645Z,4.50
2018-12-03T05:30:47.602Z,3.90
2018-12-03T05:33:16.494Z,3.90
2018-12-03T05:35:45.427Z,4.60
2018-12-03T05:38:14.346Z,5.30
2018-12-03T05:40:43.286Z,4.13
2018-12-03T05:43:12.215Z,4.83
2018-12-03T05:45:41.149Z,4.70
2018-12-03T05:48:10.063Z,4.90
2018-12-03T05:50:39.263Z,4.90
2018-12-03T05:53:08.179Z,4.90
2018-12-03T05:55:37.187Z,5.60
2018-12-03T05:58:06.084Z,4.37
2018-12-03T06:00:35.060Z,3.50
2018-12-03T06:03:04.357Z,3.13
2018-12-03T06:05:33.316Z,2.80
2018-12-03T06:08:02.239Z,2.20
2018-12-03T06:10:31.194Z,2.07
2018-12-03T06:13:00.114Z,1.67
2018-12-03T06:15:29.062Z,1.73
2018-12-03T06:17:57.983Z,1.20
2018-12-03T06:20:26.918Z,1.53
2018-12-03T06:22:55.846Z,0.83
2018-12-03T06:25:24.775Z,1.10
2018-12-03T06:27:53.778Z,0.83
2018-12-03T06:30:22.669Z,0.90
2018-12-03T06:32:51.592Z,1.30
2018-12-03T06:35:20.514Z,1.40
2018-12-03T06:37:49.491Z,2.47
2018-12-03T06:40:18.421Z,2.97
2018-12-03T06:42:47.358Z,2.47
2018-12-03T06:45:16.269Z,2.90
2018-12-03T06:47:45.202Z,3.33
2018-12-03T06:50:14.148Z,3.00
2018-12-03T06:52:43.103Z,2.90
2018-12-03T06:55:12.041Z,2.40
2018-12-03T06:57:40.969Z,3.00
2018-12-03T07:00:10.022Z,3.00
2018-12-03T07:02:38.962Z,3.43
2018-12-03T07:05:08.382Z,3.20
2018-12-03T07:07:37.315Z,3.33
2018-12-03T07:10:06.973Z,2.63
2018-12-03T07:12:35.914Z,2.77
2018-12-03T07:15:06.560Z,2.30
2018-12-03T07:17:35.499Z,1.93
2018-12-03T07:20:07.359Z,1.70
2018-12-03T07:22:36.290Z,1.60
2018-12-03T07:25:05.855Z,1.93
2018-12-03T07:27:34.791Z,1.83
2018-12-03T07:30:06.531Z,1.83
2018-12-03T07:32:35.472Z,1.80
2018-12-03T07:35:05.244Z,1.83
2018-12-03T07:37:34.447Z,1.60
2018-12-03T07:40:03.539Z,1.53
2018-12-03T07:42:32.467Z,1.30
2018-12-03T07:45:01.390Z,1.37
2018-12-03T07:47:30.325Z,1.83
2018-12-03T07:49:59.234Z,1.23
2018-12-03T07:52:28.221Z,1.87
2018-12-03T07:54:57.147Z,1.30
2018-12-03T07:57:26.087Z,1.73
2018-12-03T07:59:55.022Z,1.13
2018-12-03T08:02:23.945Z,1.03
2018-12-03T08:04:52.850Z,1.20
2018-12-03T08:07:21.777Z,1.47
2018-12-03T08:09:50.720Z,1.17
2018-12-03T08:12:19.660Z,1.40
2018-12-03T08:14:48.586Z,1.27
2018-12-03T08:17:17.524Z,1.57
2018-12-03T08:19:46.510Z,1.50
2018-12-03T08:22:15.445Z,1.53
2018-12-03T08:24:44.373Z,2.00
2018-12-03T08:27:13.303Z,1.80
2018-12-03T08:29:42.293Z,2.40
2018-12-03T08:32:11.464Z,2.47
2018-12-03T08:34:40.389Z,2.37
2018-12-03T08:37:09.310Z,1.93
2018-12-03T08:39:38.225Z,3.00
2018-12-03T08:42:07.154Z,2.43
2018-12-03T08:44:36.099Z,2.43
2018-12-03T08:47:06.285Z,2.30
2018-12-03T08:49:35.212Z,2.47
2018-12-03T08:52:06.586Z,1.87
2018-12-03T08:54:35.500Z,2.27
2018-12-03T08:57:04.908Z,2.43
2018-12-03T08:59:33.858Z,1.83
2018-12-03T09:02:02.786Z,2.60
2018-12-03T09:04:31.709Z,2.33
2018-12-03T09:07:00.638Z,1.70
2018-12-03T09:09:29.559Z,1.50
2018-12-03T09:11:58.483Z,1.50
2018-12-03T09:14:27.955Z,1.87
2018-12-03T09:17:02.263Z,1.80
2018-12-03T09:19:27.687Z,2.80
2018-12-03T09:21:56.609Z,1.80
2018-12-03T09:24:25.534Z,1.83
2018-12-03T09:26:54.458Z,2.23
2018-12-03T09:29:23.392Z,2.20
2018-12-03T09:31:52.317Z,2.47
2018-12-03T09:34:21.247Z,1.83
2018-12-03T09:36:50.160Z,2.23
2018-12-03T09:39:19.108Z,2.27
2018-12-03T09:41:48.033Z,2.17
2018-12-03T09:44:16.970Z,2.50
2018-12-03T09:46:45.885Z,2.47
2018-12-03T09:49:14.825Z,2.33
2018-12-03T09:51:43.835Z,2.70
2018-12-03T09:54:12.753Z,2.10
2018-12-03T09:56:41.675Z,2.80
2018-12-03T09:59:10.608Z,2.40
2018-12-03T10:01:39.536Z,2.27
2018-12-03T10:04:08.471Z,2.10
2018-12-03T10:06:37.393Z,2.00
2018-12-03T10:09:08.733Z,1.93
2018-12-03T10:11:37.682Z,1.30
2018-12-03T10:14:06.853Z,1.90
2018-12-03T10:16:38.060Z,1.97
2018-12-03T10:19:07.113Z,1.77
2018-12-03T10:21:36.133Z,1.33
2018-12-03T10:24:09.284Z,1.63
2018-12-03T10:26:38.203Z,1.43
2018-12-03T10:29:10.669Z,1.80
2018-12-03T10:31:39.673Z,2.20
2018-12-03T10:34:10.079Z,1.87
2018-12-03T10:36:39.065Z,1.60
2018-12-03T10:39:09.687Z,1.77
2018-12-03T10:41:38.618Z,2.10
2018-12-03T10:44:07.612Z,1.63
2018-12-03T10:46:36.616Z,2.17
2018-12-03T10:49:06.119Z,2.47
2018-12-03T10:51:35.156Z,2.60
2018-12-03T10:54:04.782Z,2.43
2018-12-03T10:56:53.380Z,2.93
2018-12-03T10:59:22.482Z,2.53
2018-12-03T11:01:53.294Z,3.17
2018-12-03T11:04:43.527Z,2.90
2018-12-03T11:07:12.461Z,3.00
2018-12-03T11:09:41.389Z,2.60
2018-12-03T11:12:10.301Z,3.23
2018-12-03T11:14:39.230Z,2.47
2018-12-03T11:17:08.246Z,3.20
2018-12-03T11:19:37.188Z,2.60
2018-12-03T11:22:06.553Z,3.00
2018-12-03T11:24:35.485Z,2.13
2018-12-03T11:27:04.589Z,1.90
2018-12-03T11:29:37.920Z,1.60
2018-12-03T11:32:06.843Z,1.40
2018-12-03T11:34:35.778Z,1.30
2018-12-03T11:37:05.767Z,1.03
2018-12-03T11:39:36.861Z,0.90
2018-12-03T11:42:06.259Z,1.10
2018-12-03T11:44:37.140Z,0.97
2018-12-03T11:47:06.221Z,0.90
2018-12-03T11:49:35.147Z,0.50
2018-12-03T11:52:04.063Z,1.17
2018-12-03T11:54:33.021Z,0.67
2018-12-03T11:57:01.945Z,0.50
2018-12-03T11:59:30.885Z,0.77
2018-12-03T12:01:59.797Z,0.50
2018-12-03T12:04:28.723Z,0.30
2018-12-03T12:06:57.645Z,0.50
2018-12-03T12:09:26.566Z,0.70
2018-12-03T12:11:55.506Z,0.60
2018-12-03T12:14:24.426Z,0.30
2018-12-03T12:16:53.354Z,0.50
2018-12-03T12:19:22.276Z,0.40
2018-12-03T12:21:55.283Z,0.43
2018-12-03T12:24:24.202Z,0.63
2018-12-03T12:26:53.124Z,0.50
2018-12-03T12:29:22.052Z,0.30
2018-12-03T12:31:50.992Z,0.70
2018-12-03T12:34:19.957Z,0.40
2018-12-03T12:36:48.906Z,0.57
2018-12-03T12:39:17.817Z,0.47
2018-12-03T12:41:46.732Z,0.40
2018-12-03T12:44:15.680Z,0.57
2018-12-03T12:46:44.614Z,0.53
2018-12-03T12:49:13.549Z,0.50
2018-12-03T12:51:42.485Z,0.50
2018-12-03T12:54:11.413Z,0.40
2018-12-03T12:56:40.341Z,0.30
2018-12-03T12:59:09.249Z,0.40
2018-12-03T13:01:38.181Z,0.40
2018-12-03T13:04:07.118Z,0.50
2018-12-03T13:06:36.074Z,0.40
2018-12-03T13:09:08.458Z,0.60
2018-12-03T13:11:37.403Z,0.47
2018-12-03T13:14:06.311Z,0.50
2018-12-03T13:16:35.236Z,0.70
2018-12-03T13:19:04.972Z,0.40
2018-12-03T13:21:33.915Z,0.70
2018-12-03T13:24:02.841Z,0.53
2018-12-03T13:26:31.748Z,0.50
2018-12-03T13:29:00.685Z,0.40
2018-12-03T13:31:29.880Z,0.40
2018-12-03T13:33:58.801Z,0.43
2018-12-03T13:36:27.717Z,0.50
2018-12-03T13:38:56.643Z,0.40
2018-12-03T13:41:25.587Z,0.70
2018-12-03T13:43:54.493Z,0.37
2018-12-03T13:46:23.440Z,0.90
2018-12-03T13:48:52.346Z,0.40
2018-12-03T13:51:21.275Z,0.60
2018-12-03T13:53:50.209Z,0.90
2018-12-03T13:56:19.126Z,0.50
2018-12-03T13:58:48.051Z,0.57
2018-12-03T14:01:17.149Z,0.83
2018-12-03T14:03:46.080Z,0.83
2018-12-03T14:06:15.019Z,0.60
2018-12-03T14:08:44.028Z,0.73
2018-12-03T14:11:13.105Z,1.00
2018-12-03T14:13:42.671Z,0.60
2018-12-03T14:16:11.775Z,0.80
2018-12-03T14:18:40.707Z,0.97
2018-12-03T14:21:09.637Z,0.70
2018-12-03T14:23:38.564Z,1.10
2018-12-03T14:26:07.571Z,0.70
2018-12-03T14:28:36.491Z,0.77
2018-12-03T14:31:05.427Z,1.03
2018-12-03T14:33:34.331Z,0.93
2018-12-03T14:36:03.271Z,1.00
2018-12-03T14:38:32.184Z,1.03
2018-12-03T14:41:01.134Z,0.93
2018-12-03T14:43:30.053Z,1.00
2018-12-03T14:45:58.997Z,0.70
2018-12-03T14:48:27.987Z,0.97
2018-12-03T14:50:56.928Z,0.90
2018-12-03T14:53:25.845Z,0.53
2018-12-03T14:55:54.801Z,1.10
2018-12-03T14:58:23.730Z,1.03
2018-12-03T15:00:52.646Z,0.90
2018-12-03T15:03:21.556Z,0.63
2018-12-03T15:05:50.515Z,0.60
2018-12-03T15:08:19.519Z,1.00
2018-12-03T15:10:48.461Z,0.90
2018-12-03T15:13:17.403Z,0.93
2018-12-03T15:15:46.332Z,0.83
2018-12-03T15:18:15.305Z,0.87
2018-12-03T15:20:44.370Z,1.20
2018-12-03T15:23:13.297Z,1.10
2018-12-03T15:25:42.204Z,1.17
2018-12-03T15:28:15.484Z,0.80
2018-12-03T15:30:41.943Z,1.40
2018-12-03T15:33:10.857Z,1.00
2018-12-03T15:35:39.792Z,0.77
2018-12-03T15:38:08.737Z,0.90
2018-12-03T15:40:37.697Z,0.90
2018-12-03T15:43:06.697Z,1.20
2018-12-03T15:45:35.612Z,1.07
2018-12-03T15:48:04.527Z,0.97
2018-12-03T15:50:33.468Z,1.20
2018-12-03T15:53:02.402Z,1.50
2018-12-03T15:55:31.330Z,1.20
2018-12-03T15:58:00.251Z,2.40
2018-12-03T16:00:29.180Z,1.40
2018-12-03T16:02:58.110Z,1.47
2018-12-03T16:05:27.047Z,1.50
2018-12-03T16:07:55.973Z,1.60
2018-12-03T16:10:25.164Z,1.10
2018-12-03T16:12:54.089Z,1.40
2018-12-03T16:15:23.076Z,1.30
2018-12-03T16:17:51.999Z,1.20
2018-12-03T16:20:20.953Z,1.20
2018-12-03T16:22:50.885Z,1.10
2018-12-03T16:25:19.842Z,1.80
2018-12-03T16:27:48.747Z,1.17
2018-12-03T16:30:17.688Z,1.50
2018-12-03T16:32:46.607Z,1.47
2018-12-03T16:35:15.543Z,1.63
2018-12-03T16:37:44.466Z,1.50
2018-12-03T16:40:13.390Z,1.90
2018-12-03T16:42:42.643Z,1.60
2018-12-03T16:45:11.590Z,1.60
2018-12-03T16:47:40.507Z,1.90
2018-12-03T16:50:09.422Z,2.03
2018-12-03T16:52:38.365Z,1.83
2018-12-03T16:55:07.288Z,1.90
2018-12-03T16:57:36.233Z,2.80
2018-12-03T17:00:08.771Z,2.30
2018-12-03T17:02:37.712Z,3.07
2018-12-03T17:05:06.628Z,3.17
2018-12-03T17:07:35.563Z,3.20
2018-12-03T17:10:07.213Z,3.30
2018-12-03T17:12:36.170Z,2.93
2018-12-03T17:15:05.328Z,3.87
2018-12-03T17:17:34.268Z,3.80
2018-12-03T17:20:07.885Z,3.60
2018-12-03T17:22:36.922Z,3.43
2018-12-03T17:25:07.317Z,4.00
2018-12-03T17:27:37.224Z,4.10
2018-12-03T17:30:07.564Z,5.43
2018-12-03T17:32:36.517Z,3.70
2018-12-03T17:35:05.981Z,4.10
2018-12-03T17:37:34.918Z,5.30
2018-12-03T17:40:06.054Z,4.30
2018-12-03T17:42:35.018Z,4.00
2018-12-03T17:45:05.076Z,5.13
2018-12-03T17:47:34.011Z,4.87
2018-12-03T17:50:02.916Z,4.80
2018-12-03T17:52:31.858Z,4.80
2018-12-03T17:55:01.700Z,5.77
2018-12-03T17:57:30.680Z,4.87
2018-12-03T17:59:59.644Z,4.77
2018-12-03T18:02:28.578Z,4.13
2018-12-03T18:04:57.496Z,4.33
2018-12-03T18:07:26.421Z,4.97
2018-12-03T18:09:55.336Z,4.00
2018-12-03T18:12:24.309Z,3.30
2018-12-03T18:14:53.232Z,4.20
2018-12-03T18:17:22.184Z,3.93
2018-12-03T18:19:51.106Z,3.37
2018-12-03T18:22:20.077Z,4.03
2018-12-03T18:24:49.007Z,3.40
2018-12-03T18:27:17.938Z,3.47
2018-12-03T18:29:46.873Z,2.87
2018-12-03T18:32:15.818Z,2.93
2018-12-03T18:34:44.732Z,3.07
2018-12-03T18:37:13.694Z,3.07
2018-12-03T18:39:42.626Z,2.13
2018-12-03T18:42:11.592Z,2.13
2018-12-03T18:44:40.551Z,2.10
2018-12-03T18:47:09.543Z,2.17
2018-12-03T18:49:38.446Z,2.10
2018-12-03T18:52:07.453Z,2.27
2018-12-03T18:54:36.458Z,1.70
2018-12-03T18:57:06.617Z,1.90
2018-12-03T18:59:35.532Z,2.47
2018-12-03T19:02:04.481Z,1.93
2018-12-03T19:04:33.401Z,1.63
2018-12-03T19:07:02.341Z,1.90
2018-12-03T19:09:31.248Z,1.83
2018-12-03T19:12:00.204Z,2.47
2018-12-03T19:14:30.163Z,2.10
2018-12-03T19:16:59.112Z,3.07
2018-12-03T19:19:28.040Z,2.60
2018-12-03T19:21:56.969Z,2.47
2018-12-03T19:24:25.884Z,2.83
2018-12-03T19:26:54.832Z,3.47
2018-12-03T19:29:23.754Z,3.47
2018-12-03T19:31:52.700Z,3.40
2018-12-03T19:34:21.624Z,3.77
2018-12-03T19:36:50.693Z,4.57
2018-12-03T19:39:25.681Z,5.20
2018-12-03T19:41:54.638Z,5.23
2018-12-03T19:44:23.632Z,4.40
2018-12-03T19:46:53.536Z,5.70
2018-12-03T19:49:22.458Z,6.10
2018-12-03T19:51:51.410Z,4.70
2018-12-03T19:54:21.425Z,5.80
2018-12-03T19:56:50.516Z,5.53
2018-12-03T19:59:19.832Z,6.07
2018-12-03T20:01:48.759Z,5.63
2018-12-03T20:04:38.884Z,5.73
2018-12-03T20:07:07.853Z,4.70
2018-12-03T20:09:36.764Z,4.50
2018-12-03T20:12:05.708Z,4.43
2018-12-03T20:14:34.635Z,4.70
2018-12-03T20:17:03.583Z,4.90
2018-12-03T20:19:32.671Z,5.17
2018-12-03T20:22:02.596Z,4.20
2018-12-03T20:24:31.968Z,4.37
2018-12-03T20:27:01.577Z,5.53
2018-12-03T20:29:30.633Z,3.93
2018-12-03T20:32:05.353Z,4.70
2018-12-03T20:34:34.565Z,3.60
2018-12-03T20:37:09.008Z,6.63
2018-12-03T20:39:43.562Z,4.77
2018-12-03T20:42:12.511Z,3.47
2018-12-03T20:44:41.506Z,4.40
2018-12-03T20:47:10.443Z,3.40
2018-12-03T20:49:39.545Z,3.20
2018-12-03T20:52:08.824Z,3.60
2018-12-03T20:54:37.760Z,3.53
2018-12-03T20:57:06.699Z,2.80
2018-12-03T20:59:36.523Z,2.80
2018-12-03T21:02:06.136Z,2.20
2018-12-03T21:04:35.051Z,2.80
2018-12-03T21:07:04.005Z,2.67
2018-12-03T21:09:32.949Z,2.83
2018-12-03T21:12:01.884Z,1.97
2018-12-03T21:14:30.808Z,2.20
2018-12-03T21:16:59.741Z,1.90
2018-12-03T21:19:28.670Z,2.20
2018-12-03T21:21:57.589Z,1.60
2018-12-03T21:24:26.530Z,2.13
2018-12-03T21:26:55.447Z,2.10
2018-12-03T21:29:24.385Z,1.70
2018-12-03T21:31:53.291Z,2.33
2018-12-03T21:34:22.230Z,1.40
2018-12-03T21:36:51.180Z,1.73
2018-12-03T21:39:20.142Z,2.10
2018-12-03T21:41:49.068Z,2.20
2018-12-03T21:44:18.003Z,1.97
2018-12-03T21:46:46.940Z,2.03
2018-12-03T21:49:15.869Z,2.00
2018-12-03T21:51:44.886Z,1.50
2018-12-03T21:54:13.830Z,1.47
2018-12-03T21:56:42.745Z,2.00
2018-12-03T21:59:11.674Z,1.30
2018-12-03T22:01:40.602Z,1.60
2018-12-03T22:04:09.536Z,1.20
2018-12-03T22:06:38.452Z,1.70
2018-12-03T22:09:07.449Z,1.60
2018-12-03T22:11:37.366Z,1.37
2018-12-03T22:14:06.284Z,1.67
2018-12-03T22:16:35.204Z,1.20
2018-12-03T22:19:04.149Z,1.30
2018-12-03T22:21:33.087Z,1.30
2018-12-03T22:24:02.013Z,1.10
2018-12-03T22:26:30.927Z,1.40
2018-12-03T22:28:59.877Z,1.20
2018-12-03T22:31:28.798Z,0.97
2018-12-03T22:33:57.755Z,1.20
2018-12-03T22:36:26.685Z,0.90
2018-12-03T22:38:55.624Z,1.30
2018-12-03T22:41:24.546Z,1.27
2018-12-03T22:43:53.468Z,0.60
2018-12-03T22:46:22.402Z,0.70
2018-12-03T22:48:51.336Z,1.67
2018-12-03T22:51:20.291Z,1.07
2018-12-03T22:53:49.229Z,0.90
2018-12-03T22:56:18.154Z,1.30
2018-12-03T22:58:47.088Z,1.27
2018-12-03T23:01:17.881Z,1.10
2018-12-03T23:03:46.817Z,1.00
2018-12-03T23:06:15.823Z,0.80
2018-12-03T23:08:44.752Z,1.60
2018-12-03T23:11:13.734Z,1.27
2018-12-03T23:13:42.683Z,1.10
2018-12-03T23:16:11.625Z,1.00
2018-12-03T23:18:40.557Z,1.40
2018-12-03T23:21:09.489Z,1.00
2018-12-03T23:23:38.420Z,0.87
2018-12-03T23:26:07.391Z,1.30
2018-12-03T23:28:36.276Z,1.07
2018-12-03T23:31:05.210Z,0.77
2018-12-03T23:33:34.154Z,1.20
2018-12-03T23:36:03.110Z,1.37
2018-12-03T23:38:32.033Z,1.03
2018-12-03T23:41:00.945Z,1.20
2018-12-03T23:43:29.904Z,0.97
2018-12-03T23:45:58.825Z,1.57
2018-12-03T23:48:28.760Z,1.20
2018-12-03T23:50:57.683Z,0.80
2018-12-03T23:53:26.605Z,2.13
2018-12-03T23:55:55.524Z,1.60
2018-12-03T23:58:24.444Z,1.03
